Upsala, Canada
Current Conditions -  °F | °C
As of 11:00 PM on Tuesday 25 Nov 2014 (Local Time) from CYQT Reporting Station
Overcast Overcast  
Wind Chill:   Ceiling: 11000
Heat Index: 16°   Visibility: 15mi
Dew Point: 10°   Wind: 5mph
Humidity: 79%   Direction: 320°NW
Pressure: 30.09"   Gusts: NA
Location:  49.04°N, 90.47°W
Report Text: CYQT 260500Z 32004KT 15SM OVC110 M09/M12 A3009 RMK AC8 SLP206
Loading
Personal Weather Stations






























Interactive Weather Map New forecast layout! Learn more

10-Day Weather Forecast

Advertisements
Track Severe Weather on mobile